createdAt,value
2023-07-29T00:03:25.097Z,22.94
2023-07-29T00:08:27.953Z,22.81
2023-07-29T00:13:30.623Z,22.83
2023-07-29T00:18:33.538Z,22.69
2023-07-29T00:23:36.190Z,22.63
2023-07-29T00:28:38.869Z,22.60
2023-07-29T00:33:41.552Z,22.39
2023-07-29T00:38:44.221Z,22.22
2023-07-29T00:43:46.986Z,22.16
2023-07-29T00:48:50.160Z,22.12
2023-07-29T00:53:53.178Z,22.02
2023-07-29T00:59:00.195Z,22.00
2023-07-29T01:04:03.657Z,21.97
2023-07-29T01:09:10.496Z,21.96
2023-07-29T01:14:16.189Z,21.99
2023-07-29T01:19:52.654Z,22.08
2023-07-29T01:24:55.258Z,21.99
2023-07-29T01:35:10.067Z,21.75
2023-07-29T01:40:12.995Z,21.71
2023-07-29T01:45:17.035Z,21.67
2023-07-29T01:50:20.991Z,21.67
2023-07-29T01:55:23.747Z,21.67
2023-07-29T02:00:26.401Z,21.65
2023-07-29T02:05:29.345Z,21.67
2023-07-29T02:10:32.080Z,21.62
2023-07-29T02:15:35.243Z,21.61
2023-07-29T02:20:40.228Z,21.63
2023-07-29T02:25:42.942Z,21.68
2023-07-29T02:30:46.382Z,21.60
2023-07-29T02:35:50.124Z,21.69
2023-07-29T02:40:52.772Z,21.62
2023-07-29T02:45:55.486Z,21.67
2023-07-29T02:50:58.154Z,21.55
2023-07-29T02:56:00.839Z,21.59
2023-07-29T03:01:07.969Z,21.71
2023-07-29T03:06:15.461Z,21.72
2023-07-29T03:11:18.464Z,21.94
2023-07-29T03:16:21.447Z,21.93
2023-07-29T03:21:30.469Z,22.04
2023-07-29T03:26:33.165Z,22.15
2023-07-29T03:31:36.053Z,22.55
2023-07-29T03:36:39.082Z,22.68
2023-07-29T03:41:41.859Z,22.65
2023-07-29T03:46:44.536Z,23.54
2023-07-29T03:51:47.595Z,24.67
2023-07-29T03:56:50.437Z,25.32
2023-07-29T04:01:53.057Z,25.48
2023-07-29T04:06:55.859Z,26.21
2023-07-29T04:11:58.618Z,26.27
2023-07-29T04:17:01.276Z,26.29
2023-07-29T04:22:04.049Z,26.07
2023-07-29T04:27:06.916Z,25.77
2023-07-29T04:32:09.554Z,26.06
2023-07-29T04:37:12.212Z,25.92
2023-07-29T04:42:14.937Z,25.37
2023-07-29T04:47:17.741Z,25.49
2023-07-29T04:52:21.143Z,26.42
2023-07-29T04:57:23.592Z,26.91
2023-07-29T05:02:26.093Z,27.04
2023-07-29T05:07:28.674Z,27.53
2023-07-29T05:12:31.427Z,28.92
2023-07-29T05:17:34.227Z,28.18
2023-07-29T05:22:36.862Z,26.62
2023-07-29T05:27:39.536Z,26.26
2023-07-29T05:32:42.444Z,25.90
2023-07-29T05:37:45.222Z,27.06
2023-07-29T05:42:49.237Z,27.36
2023-07-29T05:47:51.913Z,26.70
2023-07-29T05:52:55.144Z,26.19
2023-07-29T05:57:59.059Z,26.42
2023-07-29T06:03:02.168Z,26.32
2023-07-29T06:08:05.570Z,26.09
2023-07-29T06:13:08.361Z,25.77
2023-07-29T06:18:11.207Z,26.86
2023-07-29T06:23:14.501Z,27.49
2023-07-29T06:28:17.221Z,27.28
2023-07-29T06:33:20.169Z,26.38
2023-07-29T06:38:23.349Z,25.67
2023-07-29T06:43:25.984Z,25.11
2023-07-29T06:48:28.753Z,25.00
2023-07-29T06:53:33.807Z,25.37
2023-07-29T06:58:37.514Z,25.38
2023-07-29T07:03:40.348Z,25.67
2023-07-29T07:08:43.209Z,25.48
2023-07-29T07:13:45.838Z,27.47
2023-07-29T07:18:48.446Z,28.97
2023-07-29T07:23:51.921Z,30.64
2023-07-29T07:28:54.497Z,30.87
2023-07-29T07:33:57.126Z,30.36
2023-07-29T07:38:59.723Z,30.35
2023-07-29T07:44:02.576Z,30.35
2023-07-29T07:49:05.172Z,30.55
2023-07-29T07:54:08.034Z,29.04
2023-07-29T07:59:10.713Z,29.45
2023-07-29T08:04:13.490Z,29.51
2023-07-29T08:09:16.453Z,28.32
2023-07-29T08:14:19.062Z,26.91
2023-07-29T08:19:22.867Z,26.51
2023-07-29T08:24:25.609Z,24.72
2023-07-29T08:29:28.483Z,23.95
2023-07-29T08:34:31.201Z,24.50
2023-07-29T08:39:33.960Z,26.23
2023-07-29T08:44:46.968Z,26.44
2023-07-29T08:49:52.451Z,27.53
2023-07-29T08:54:55.233Z,28.96
2023-07-29T08:59:59.120Z,30.24
2023-07-29T09:05:03.199Z,32.25
2023-07-29T09:10:07.175Z,32.19
2023-07-29T09:15:10.646Z,32.26
2023-07-29T09:20:13.470Z,33.16
2023-07-29T09:25:17.792Z,32.00
2023-07-29T09:30:20.678Z,31.66
2023-07-29T09:35:25.239Z,32.62
2023-07-29T09:40:28.208Z,30.70
2023-07-29T09:45:31.052Z,29.14
2023-07-29T09:50:33.661Z,28.31
2023-07-29T09:55:36.472Z,29.82
2023-07-29T10:00:40.445Z,29.01
2023-07-29T10:05:43.390Z,28.20
2023-07-29T10:10:46.905Z,30.13
2023-07-29T10:15:50.257Z,29.01
2023-07-29T10:20:54.164Z,29.86
2023-07-29T10:26:07.121Z,30.03
2023-07-29T10:31:09.729Z,29.53
2023-07-29T10:36:13.572Z,28.46
2023-07-29T10:41:16.202Z,27.64
2023-07-29T10:46:23.894Z,28.20
2023-07-29T10:51:36.155Z,29.56
2023-07-29T10:56:42.978Z,28.39
2023-07-29T11:02:02.021Z,27.82
2023-07-29T11:07:11.865Z,27.64
2023-07-29T11:12:43.731Z,27.19
2023-07-29T11:17:57.854Z,27.56
2023-07-29T11:23:02.853Z,27.58
2023-07-29T11:28:07.417Z,27.31
2023-07-29T11:33:11.540Z,27.20
2023-07-29T11:38:19.039Z,27.17
2023-07-29T11:43:21.821Z,27.25
2023-07-29T11:48:35.007Z,27.39
2023-07-29T11:53:38.343Z,27.17
2023-07-29T11:58:41.106Z,27.20
2023-07-29T12:03:44.993Z,27.45
2023-07-29T12:08:48.233Z,26.92
2023-07-29T12:13:50.728Z,27.20
2023-07-29T12:18:53.554Z,27.34
2023-07-29T12:23:58.184Z,27.45
2023-07-29T12:29:13.629Z,27.62
2023-07-29T12:34:23.217Z,27.50
2023-07-29T12:39:27.492Z,27.27
2023-07-29T12:44:35.003Z,27.38
2023-07-29T12:49:37.790Z,27.45
2023-07-29T12:54:41.607Z,27.23
2023-07-29T12:59:44.299Z,27.40
2023-07-29T13:04:47.247Z,27.21
2023-07-29T13:09:49.870Z,26.75
2023-07-29T13:14:52.538Z,26.45
2023-07-29T13:19:55.162Z,26.41
2023-07-29T13:24:57.891Z,26.11
2023-07-29T13:30:00.486Z,26.20
2023-07-29T13:35:03.204Z,26.22
2023-07-29T13:40:06.990Z,26.06
2023-07-29T13:45:10.371Z,25.65
2023-07-29T13:50:13.433Z,25.46
2023-07-29T13:55:16.180Z,25.67
2023-07-29T14:00:18.872Z,25.58
2023-07-29T14:05:21.608Z,25.80
2023-07-29T14:10:24.369Z,25.73
2023-07-29T14:15:27.029Z,25.69
2023-07-29T14:20:29.836Z,25.73
2023-07-29T14:25:32.443Z,25.98
2023-07-29T14:30:35.846Z,25.90
2023-07-29T14:35:38.537Z,25.80
2023-07-29T14:40:41.217Z,25.73
2023-07-29T14:45:43.950Z,25.49
2023-07-29T14:50:46.619Z,25.49
2023-07-29T14:55:49.276Z,25.45
2023-07-29T15:00:51.945Z,25.49
2023-07-29T15:05:54.605Z,25.58
2023-07-29T15:10:57.409Z,25.46
2023-07-29T15:16:00.104Z,25.35
2023-07-29T15:21:03.960Z,25.05
2023-07-29T15:26:06.605Z,24.85
2023-07-29T15:31:09.759Z,24.73
2023-07-29T15:36:12.368Z,24.56
2023-07-29T15:41:15.199Z,24.50
2023-07-29T15:46:17.882Z,24.48
2023-07-29T15:51:20.485Z,24.54
2023-07-29T15:56:23.145Z,24.46
2023-07-29T16:01:25.847Z,24.41
2023-07-29T16:06:28.584Z,24.39
2023-07-29T16:11:31.173Z,24.20
2023-07-29T16:16:33.903Z,24.04
2023-07-29T16:21:37.695Z,23.86
2023-07-29T16:26:40.488Z,23.82
2023-07-29T16:31:43.165Z,23.62
2023-07-29T16:36:45.884Z,23.56
2023-07-29T16:46:54.092Z,23.42
2023-07-29T16:51:56.827Z,23.32
2023-07-29T16:56:59.404Z,23.27
2023-07-29T17:02:02.533Z,23.23
2023-07-29T17:07:05.288Z,23.22
2023-07-29T17:12:08.099Z,23.22
2023-07-29T17:17:10.806Z,23.30
2023-07-29T17:22:13.360Z,23.39
2023-07-29T17:27:16.029Z,23.39
2023-07-29T17:32:18.648Z,23.45
2023-07-29T17:37:21.293Z,23.49
2023-07-29T17:42:24.081Z,23.52
2023-07-29T17:47:26.776Z,23.53
2023-07-29T17:52:29.473Z,23.44
2023-07-29T17:57:32.101Z,23.40
2023-07-29T18:02:34.905Z,23.26
2023-07-29T18:07:37.576Z,23.06
2023-07-29T18:12:41.006Z,22.82
2023-07-29T18:17:43.721Z,22.77
2023-07-29T18:22:49.754Z,22.73
2023-07-29T18:27:52.415Z,22.78
2023-07-29T18:32:55.514Z,22.69
2023-07-29T18:38:01.265Z,22.76
2023-07-29T18:43:03.974Z,22.78
2023-07-29T18:48:06.879Z,22.73
2023-07-29T18:53:09.671Z,22.77
2023-07-29T18:58:12.305Z,22.76
2023-07-29T19:03:15.739Z,22.58
2023-07-29T19:08:18.485Z,22.47
2023-07-29T19:13:22.253Z,22.31
2023-07-29T19:18:26.877Z,22.17
2023-07-29T19:23:29.544Z,22.03
2023-07-29T19:28:32.375Z,21.92
2023-07-29T19:33:35.177Z,21.79
2023-07-29T19:38:38.018Z,21.78
2023-07-29T19:43:40.755Z,21.78
2023-07-29T19:48:43.788Z,21.74
2023-07-29T19:53:46.419Z,21.70
2023-07-29T19:58:50.428Z,21.61
2023-07-29T20:03:54.387Z,21.59
2023-07-29T20:08:57.134Z,21.48
2023-07-29T20:13:59.871Z,21.46
2023-07-29T20:19:02.623Z,21.45
2023-07-29T20:24:06.215Z,21.41
2023-07-29T20:29:08.990Z,21.39
2023-07-29T20:34:11.630Z,21.40
2023-07-29T20:39:14.228Z,21.44
2023-07-29T20:44:16.909Z,21.40
2023-07-29T20:49:19.637Z,21.35
2023-07-29T20:54:22.302Z,21.34
2023-07-29T20:59:24.913Z,21.31
2023-07-29T21:04:27.539Z,21.32
2023-07-29T21:09:30.427Z,21.31
2023-07-29T21:14:33.219Z,21.29
2023-07-29T21:19:35.858Z,21.28
2023-07-29T21:24:38.710Z,21.22
2023-07-29T21:29:41.287Z,21.20
2023-07-29T21:34:44.758Z,21.16
2023-07-29T21:39:47.366Z,21.15
2023-07-29T21:44:49.926Z,21.07
2023-07-29T21:49:53.149Z,21.05
2023-07-29T21:54:55.728Z,20.98
2023-07-29T22:00:00.750Z,20.93
2023-07-29T22:12:09.589Z,20.85
2023-07-29T22:17:12.514Z,20.82
2023-07-29T22:22:15.087Z,20.74
2023-07-29T22:27:17.807Z,20.67
2023-07-29T22:32:20.491Z,20.65
2023-07-29T22:37:23.220Z,20.63
2023-07-29T22:42:25.912Z,20.58
2023-07-29T22:47:28.518Z,20.57
2023-07-29T22:52:31.344Z,20.59
2023-07-29T22:57:33.962Z,20.50
2023-07-29T23:02:36.733Z,20.50
2023-07-29T23:07:40.188Z,20.47
2023-07-29T23:12:42.934Z,20.45
2023-07-29T23:17:45.628Z,20.43
2023-07-29T23:22:48.261Z,20.39
2023-07-29T23:27:50.840Z,20.37
2023-07-29T23:32:53.594Z,20.34
2023-07-29T23:37:56.253Z,20.35
2023-07-29T23:42:58.891Z,20.35
2023-07-29T23:48:01.571Z,20.34
2023-07-29T23:53:04.261Z,20.33
2023-07-29T23:58:06.964Z,20.40
